createdAt,value
2019-03-24T00:00:12.782Z,24.65
2019-03-24T00:01:23.804Z,24.60
2019-03-24T00:02:25.575Z,24.55
2019-03-24T00:03:26.968Z,24.56
2019-03-24T00:04:28.348Z,24.47
2019-03-24T00:05:29.857Z,24.54
2019-03-24T00:06:31.243Z,24.61
2019-03-24T00:07:32.661Z,24.64
2019-03-24T00:08:34.080Z,24.58
2019-03-24T00:09:35.494Z,24.70
2019-03-24T00:10:36.909Z,24.59
2019-03-24T00:11:38.314Z,24.55
2019-03-24T00:12:39.766Z,24.39
2019-03-24T00:13:41.153Z,24.52
2019-03-24T00:14:42.661Z,24.64
2019-03-24T00:15:44.044Z,24.71
2019-03-24T00:16:45.569Z,24.63
2019-03-24T00:17:46.940Z,24.62
2019-03-24T00:18:48.346Z,24.67
2019-03-24T00:19:49.722Z,24.67
2019-03-24T00:20:51.532Z,24.69
2019-03-24T00:21:53.030Z,24.59
2019-03-24T00:22:54.511Z,24.86
2019-03-24T00:23:56.440Z,24.70
2019-03-24T00:24:57.831Z,24.67
2019-03-24T00:25:59.217Z,24.72
2019-03-24T00:27:00.782Z,24.86
2019-03-24T00:28:02.167Z,24.81
2019-03-24T00:29:04.771Z,24.84
2019-03-24T00:30:07.246Z,24.84
2019-03-24T00:31:08.635Z,24.99
2019-03-24T00:32:10.036Z,24.84
2019-03-24T00:33:11.427Z,24.80
2019-03-24T00:34:12.952Z,24.80
2019-03-24T00:35:14.313Z,24.73
2019-03-24T00:36:15.699Z,24.79
2019-03-24T00:37:17.100Z,24.88
2019-03-24T00:38:18.475Z,24.80
2019-03-24T00:39:19.876Z,24.90
2019-03-24T00:40:21.384Z,24.97
2019-03-24T00:41:22.798Z,24.76
2019-03-24T00:42:24.326Z,24.87
2019-03-24T00:43:25.784Z,24.89
2019-03-24T00:44:27.272Z,24.89
2019-03-24T00:45:36.481Z,24.89
2019-03-24T00:46:31.960Z,24.88
2019-03-24T00:47:33.360Z,24.86
2019-03-24T00:48:34.727Z,24.89
2019-03-24T00:49:36.129Z,24.74
2019-03-24T00:50:37.510Z,24.90
2019-03-24T00:51:38.906Z,25.02
2019-03-24T00:52:40.320Z,25.04
2019-03-24T00:53:41.711Z,24.97
2019-03-24T00:54:43.096Z,24.89
2019-03-24T00:55:44.485Z,24.83
2019-03-24T00:56:45.882Z,24.83
2019-03-24T00:57:47.290Z,24.82
2019-03-24T00:58:48.669Z,24.85
2019-03-24T00:59:50.077Z,24.86
2019-03-24T01:00:51.967Z,24.85
2019-03-24T01:01:53.367Z,24.86
2019-03-24T01:02:54.786Z,24.84
2019-03-24T01:03:56.177Z,24.80
2019-03-24T01:04:57.666Z,24.78
2019-03-24T01:05:59.057Z,24.68
2019-03-24T01:07:00.444Z,24.81
2019-03-24T01:08:01.951Z,24.96
2019-03-24T01:09:05.827Z,24.97
2019-03-24T01:10:07.524Z,25.01
2019-03-24T01:11:08.901Z,24.59
2019-03-24T01:12:10.297Z,24.64
2019-03-24T01:13:12.180Z,24.73
2019-03-24T01:14:13.634Z,24.91
2019-03-24T01:15:15.031Z,24.92
2019-03-24T01:16:16.407Z,24.72
2019-03-24T01:17:17.785Z,24.81
2019-03-24T01:18:19.223Z,24.80
2019-03-24T01:19:20.695Z,24.84
2019-03-24T01:20:22.092Z,24.86
2019-03-24T01:21:23.471Z,24.80
2019-03-24T01:22:24.869Z,24.83
2019-03-24T01:23:26.256Z,24.80
2019-03-24T01:24:27.751Z,24.87
2019-03-24T01:25:29.141Z,24.84
2019-03-24T01:26:33.764Z,24.70
2019-03-24T01:27:35.157Z,24.75
2019-03-24T01:28:36.564Z,24.67
2019-03-24T01:29:37.942Z,24.58
2019-03-24T01:30:39.340Z,24.69
2019-03-24T01:31:40.716Z,24.87
2019-03-24T01:32:42.220Z,24.85
2019-03-24T01:33:43.641Z,24.83
2019-03-24T01:34:45.035Z,24.79
2019-03-24T01:35:46.441Z,24.72
2019-03-24T01:36:47.835Z,24.85
2019-03-24T01:37:49.231Z,24.79
2019-03-24T01:38:50.641Z,24.84
2019-03-24T01:39:52.146Z,24.56
2019-03-24T01:40:53.569Z,24.79
2019-03-24T01:41:54.974Z,24.83
2019-03-24T01:42:56.387Z,24.51
2019-03-24T01:43:57.796Z,24.62
2019-03-24T01:44:59.316Z,24.79
2019-03-24T01:46:00.810Z,24.66
2019-03-24T01:47:02.301Z,24.65
2019-03-24T01:48:03.678Z,24.59
2019-03-24T01:49:05.271Z,24.71
2019-03-24T01:50:07.247Z,24.84
2019-03-24T01:51:08.757Z,24.69
2019-03-24T01:52:10.237Z,24.71
2019-03-24T01:53:11.740Z,24.77
2019-03-24T01:54:13.132Z,24.59
2019-03-24T01:55:14.523Z,24.66
2019-03-24T01:56:15.920Z,24.60
2019-03-24T01:57:17.763Z,24.73
2019-03-24T01:58:19.255Z,24.60
2019-03-24T01:59:20.656Z,24.60
2019-03-24T02:00:22.066Z,24.58
2019-03-24T02:01:23.472Z,24.61
2019-03-24T02:02:24.848Z,24.64
2019-03-24T02:03:26.353Z,24.61
2019-03-24T02:04:27.750Z,24.55
2019-03-24T02:05:29.239Z,24.62
2019-03-24T02:06:30.731Z,24.71
2019-03-24T02:07:32.223Z,24.76
2019-03-24T02:08:33.614Z,24.88
2019-03-24T02:09:35.018Z,24.86
2019-03-24T02:10:37.595Z,24.71
2019-03-24T02:11:38.997Z,24.76
2019-03-24T02:12:40.378Z,24.71
2019-03-24T02:13:41.768Z,24.72
2019-03-24T02:14:43.158Z,24.65
2019-03-24T02:15:44.617Z,24.53
2019-03-24T02:16:46.013Z,24.60
2019-03-24T02:17:47.398Z,24.71
2019-03-24T02:18:48.782Z,24.80
2019-03-24T02:19:50.220Z,24.78
2019-03-24T02:20:51.600Z,24.75
2019-03-24T02:21:52.992Z,24.54
2019-03-24T02:22:55.367Z,24.71
2019-03-24T02:23:56.766Z,24.66
2019-03-24T02:24:58.179Z,24.74
2019-03-24T02:25:59.572Z,24.64
2019-03-24T02:27:00.956Z,24.67
2019-03-24T02:28:02.842Z,24.73
2019-03-24T02:29:04.223Z,24.66
2019-03-24T02:30:07.533Z,24.59
2019-03-24T02:31:08.907Z,24.56
2019-03-24T02:32:10.311Z,24.65
2019-03-24T02:33:11.784Z,24.66
2019-03-24T02:34:13.180Z,24.52
2019-03-24T02:35:14.892Z,24.57
2019-03-24T02:36:16.284Z,24.62
2019-03-24T02:37:17.666Z,24.55
2019-03-24T02:38:19.155Z,24.55
2019-03-24T02:39:21.538Z,24.65
2019-03-24T02:40:22.944Z,24.58
2019-03-24T02:41:24.353Z,24.50
2019-03-24T02:42:25.762Z,24.62
2019-03-24T02:43:27.166Z,24.64
2019-03-24T02:44:28.612Z,24.53
2019-03-24T02:45:30.003Z,24.52
2019-03-24T02:46:31.461Z,24.60
2019-03-24T02:47:32.850Z,24.58
2019-03-24T02:48:34.236Z,24.61
2019-03-24T02:49:35.616Z,24.64
2019-03-24T02:50:37.120Z,24.64
2019-03-24T02:51:38.499Z,24.67
2019-03-24T02:52:40.016Z,24.65
2019-03-24T02:53:41.382Z,24.69
2019-03-24T02:54:42.786Z,24.71
2019-03-24T02:55:44.181Z,24.55
2019-03-24T02:56:45.562Z,24.51
2019-03-24T02:57:47.247Z,24.47
2019-03-24T02:58:48.730Z,24.61
2019-03-24T02:59:50.230Z,24.58
2019-03-24T03:00:51.632Z,24.51
2019-03-24T03:01:53.151Z,24.35
2019-03-24T03:02:54.554Z,24.51
2019-03-24T03:03:56.076Z,24.46
2019-03-24T03:04:57.481Z,24.58
2019-03-24T03:05:59.176Z,24.55
2019-03-24T03:07:00.559Z,24.67
2019-03-24T03:08:01.952Z,24.61
2019-03-24T03:09:04.430Z,24.45
2019-03-24T03:10:07.724Z,24.36
2019-03-24T03:11:09.299Z,24.51
2019-03-24T03:12:10.702Z,24.41
2019-03-24T03:13:12.208Z,24.53
2019-03-24T03:14:13.724Z,24.61
2019-03-24T03:15:15.233Z,24.65
2019-03-24T03:16:20.293Z,24.65
2019-03-24T03:17:21.858Z,24.55
2019-03-24T03:18:23.342Z,24.71
2019-03-24T03:19:24.820Z,24.63
2019-03-24T03:20:26.215Z,24.54
2019-03-24T03:21:27.617Z,24.54
2019-03-24T03:22:29.006Z,24.48
2019-03-24T03:23:30.403Z,24.39
2019-03-24T03:24:31.787Z,24.38
2019-03-24T03:25:33.194Z,24.48
2019-03-24T03:26:34.583Z,24.34
2019-03-24T03:27:36.069Z,24.45
2019-03-24T03:28:37.453Z,24.47
2019-03-24T03:29:38.946Z,24.57
2019-03-24T03:30:44.696Z,24.54
2019-03-24T03:31:46.125Z,24.43
2019-03-24T03:32:47.502Z,24.28
2019-03-24T03:33:48.993Z,24.32
2019-03-24T03:34:50.367Z,24.26
2019-03-24T03:35:51.851Z,24.35
2019-03-24T03:36:53.234Z,24.60
2019-03-24T03:37:54.615Z,24.58
2019-03-24T03:39:02.150Z,24.58
2019-03-24T03:40:07.278Z,24.63
2019-03-24T03:41:08.890Z,24.63
2019-03-24T03:42:10.273Z,24.64
2019-03-24T03:43:11.640Z,24.57
2019-03-24T03:44:14.139Z,24.53
2019-03-24T03:45:19.119Z,24.60
2019-03-24T03:46:20.518Z,24.61
2019-03-24T03:47:21.920Z,24.53
2019-03-24T03:48:23.489Z,24.50
2019-03-24T03:49:24.901Z,24.42
2019-03-24T03:50:26.486Z,24.45
2019-03-24T03:51:27.899Z,24.50
2019-03-24T03:52:29.301Z,24.52
2019-03-24T03:53:30.694Z,24.59
2019-03-24T03:54:32.088Z,24.55
2019-03-24T03:55:33.468Z,24.52
2019-03-24T03:56:34.868Z,24.66
2019-03-24T03:57:36.314Z,24.42
2019-03-24T03:58:37.727Z,24.57
2019-03-24T03:59:39.143Z,24.67
2019-03-24T04:00:46.748Z,24.44
2019-03-24T04:01:48.410Z,24.39
2019-03-24T04:02:49.830Z,24.42
2019-03-24T04:03:51.208Z,24.36
2019-03-24T04:04:52.708Z,24.36
2019-03-24T04:05:54.081Z,24.51
2019-03-24T04:06:55.479Z,24.48
2019-03-24T04:07:57.578Z,24.49
2019-03-24T04:08:59.011Z,24.57
2019-03-24T04:10:00.628Z,24.61
2019-03-24T04:11:02.026Z,24.55
2019-03-24T04:12:03.444Z,24.51
2019-03-24T04:13:04.987Z,24.52
2019-03-24T04:14:06.437Z,24.42
2019-03-24T04:15:07.836Z,24.39
2019-03-24T04:16:09.312Z,24.47
2019-03-24T04:17:10.710Z,24.49
2019-03-24T04:18:12.089Z,24.53
2019-03-24T04:19:13.577Z,24.52
2019-03-24T04:20:14.989Z,24.60
2019-03-24T04:21:16.434Z,24.46
2019-03-24T04:22:17.823Z,24.44
2019-03-24T04:23:19.230Z,24.37
2019-03-24T04:24:20.713Z,24.39
2019-03-24T04:25:22.114Z,24.44
2019-03-24T04:26:23.495Z,24.33
2019-03-24T04:27:24.996Z,24.43
2019-03-24T04:28:26.483Z,24.37
2019-03-24T04:29:27.890Z,24.38
2019-03-24T04:30:29.289Z,24.46
2019-03-24T04:31:30.807Z,24.48
2019-03-24T04:32:32.528Z,24.46
2019-03-24T04:33:33.946Z,24.37
2019-03-24T04:34:35.327Z,24.42
2019-03-24T04:35:36.730Z,24.50
2019-03-24T04:36:38.212Z,24.50
2019-03-24T04:37:39.709Z,24.48
2019-03-24T04:38:41.122Z,24.45
2019-03-24T04:39:43.613Z,24.50
2019-03-24T04:40:45.020Z,24.60
2019-03-24T04:41:47.430Z,24.71
2019-03-24T04:42:48.836Z,24.50
2019-03-24T04:43:50.245Z,24.40
2019-03-24T04:44:51.622Z,24.58
2019-03-24T04:45:53.229Z,24.43
2019-03-24T04:46:54.599Z,24.46
2019-03-24T04:47:56.006Z,24.49
2019-03-24T04:48:57.409Z,24.45
2019-03-24T04:49:58.978Z,24.50
2019-03-24T04:51:00.403Z,24.55
2019-03-24T04:52:01.814Z,24.54
2019-03-24T04:53:03.332Z,24.55
2019-03-24T04:54:04.728Z,24.49
2019-03-24T04:55:06.705Z,24.49
2019-03-24T04:56:08.112Z,24.48
2019-03-24T04:57:09.488Z,24.46
2019-03-24T04:58:10.896Z,24.44
2019-03-24T04:59:12.311Z,24.54
2019-03-24T05:00:14.229Z,24.52
2019-03-24T05:01:15.639Z,24.65
2019-03-24T05:02:17.158Z,24.56
2019-03-24T05:03:18.575Z,24.62
2019-03-24T05:04:19.977Z,24.72
2019-03-24T05:05:21.354Z,24.72
2019-03-24T05:06:22.849Z,24.77
2019-03-24T05:07:24.831Z,24.62
2019-03-24T05:08:26.335Z,24.64
2019-03-24T05:09:27.716Z,24.63
2019-03-24T05:10:29.227Z,24.68
2019-03-24T05:11:30.639Z,24.51
2019-03-24T05:12:32.057Z,24.52
2019-03-24T05:13:33.475Z,24.46
2019-03-24T05:14:34.872Z,24.43
2019-03-24T05:15:36.253Z,24.50
2019-03-24T05:16:37.660Z,24.46
2019-03-24T05:17:39.048Z,24.41
2019-03-24T05:18:41.552Z,24.42
2019-03-24T05:19:42.991Z,24.40
2019-03-24T05:20:44.482Z,24.45
2019-03-24T05:21:45.887Z,24.55
2019-03-24T05:22:47.292Z,24.56
2019-03-24T05:23:48.708Z,24.46
2019-03-24T05:24:50.107Z,24.57
2019-03-24T05:25:51.486Z,24.57
2019-03-24T05:26:52.989Z,24.56
2019-03-24T05:27:54.364Z,24.43
2019-03-24T05:28:55.872Z,24.47
2019-03-24T05:29:57.889Z,24.47
2019-03-24T05:30:59.309Z,24.38
2019-03-24T05:32:00.720Z,24.45
2019-03-24T05:33:02.172Z,24.43
2019-03-24T05:34:03.856Z,24.53
2019-03-24T05:35:06.282Z,24.50
2019-03-24T05:36:07.650Z,24.44
2019-03-24T05:37:09.042Z,24.40
2019-03-24T05:38:10.418Z,24.60
2019-03-24T05:39:11.817Z,24.49
2019-03-24T05:40:13.201Z,24.43
2019-03-24T05:41:14.603Z,24.35
2019-03-24T05:42:16.908Z,24.49
2019-03-24T05:43:18.329Z,24.45
2019-03-24T05:44:19.724Z,24.58
2019-03-24T05:45:21.124Z,24.47
2019-03-24T05:46:22.504Z,24.58
2019-03-24T05:47:23.903Z,24.70
2019-03-24T05:48:25.272Z,24.88
2019-03-24T05:49:26.667Z,24.95
2019-03-24T05:50:28.052Z,24.85
2019-03-24T05:51:29.524Z,24.62
2019-03-24T05:52:30.941Z,24.49
2019-03-24T05:53:32.345Z,24.56
2019-03-24T05:54:33.752Z,24.56
2019-03-24T05:55:35.152Z,24.43
2019-03-24T05:56:36.522Z,24.64
2019-03-24T05:57:37.921Z,24.52
2019-03-24T05:58:39.294Z,24.49
2019-03-24T05:59:40.691Z,24.41
2019-03-24T06:00:42.216Z,24.45
2019-03-24T06:01:43.623Z,24.49
2019-03-24T06:02:45.031Z,24.49
2019-03-24T06:03:46.438Z,24.52
2019-03-24T06:04:47.856Z,24.41
2019-03-24T06:05:51.409Z,24.49
2019-03-24T06:06:52.884Z,24.44
2019-03-24T06:07:54.276Z,24.47
2019-03-24T06:08:55.648Z,24.58
2019-03-24T06:09:57.047Z,24.60
2019-03-24T06:10:58.441Z,24.54
2019-03-24T06:11:59.848Z,24.57
2019-03-24T06:13:01.352Z,24.56
2019-03-24T06:14:02.760Z,24.48
2019-03-24T06:15:08.540Z,24.45
2019-03-24T06:16:09.932Z,24.44
2019-03-24T06:17:11.321Z,24.45
2019-03-24T06:18:12.719Z,24.52
2019-03-24T06:19:14.089Z,24.53
2019-03-24T06:20:15.484Z,24.49
2019-03-24T06:21:16.863Z,24.49
2019-03-24T06:22:18.340Z,24.46
2019-03-24T06:23:19.841Z,24.49
2019-03-24T06:24:21.253Z,24.43
2019-03-24T06:25:22.665Z,24.61
2019-03-24T06:26:24.076Z,24.46
2019-03-24T06:27:25.453Z,24.43
2019-03-24T06:28:26.970Z,24.66
2019-03-24T06:29:28.343Z,24.68
2019-03-24T06:30:29.852Z,24.60
2019-03-24T06:31:31.240Z,24.60
2019-03-24T06:32:32.647Z,24.69
2019-03-24T06:33:34.061Z,24.59
2019-03-24T06:34:35.473Z,24.42
2019-03-24T06:35:36.888Z,24.37
2019-03-24T06:36:38.563Z,24.49
2019-03-24T06:37:39.939Z,24.58
2019-03-24T06:38:41.447Z,24.58
2019-03-24T06:39:42.825Z,24.57
2019-03-24T06:40:44.233Z,24.46
2019-03-24T06:41:45.663Z,24.50
2019-03-24T06:42:47.042Z,24.42
2019-03-24T06:43:48.460Z,24.44
2019-03-24T06:44:49.870Z,24.58
2019-03-24T06:45:51.275Z,24.57
2019-03-24T06:46:52.673Z,24.50
2019-03-24T06:47:58.255Z,24.51
2019-03-24T06:48:57.581Z,24.51
2019-03-24T06:49:58.964Z,24.54
2019-03-24T06:51:00.368Z,24.54
2019-03-24T06:52:01.868Z,24.55
2019-03-24T06:53:03.331Z,24.53
2019-03-24T06:54:04.720Z,24.50
2019-03-24T06:55:06.611Z,24.54
2019-03-24T06:56:08.106Z,24.53
2019-03-24T06:57:09.625Z,24.52
2019-03-24T06:58:11.008Z,24.54
2019-03-24T06:59:12.403Z,24.62
2019-03-24T07:00:14.680Z,24.50
2019-03-24T07:01:16.093Z,24.67
2019-03-24T07:02:17.499Z,24.68
2019-03-24T07:03:18.882Z,24.67
2019-03-24T07:04:20.284Z,24.64
2019-03-24T07:05:21.665Z,24.62
2019-03-24T07:06:23.060Z,24.52
2019-03-24T07:07:24.893Z,24.52
2019-03-24T07:08:26.302Z,24.55
2019-03-24T07:09:27.812Z,24.62
2019-03-24T07:10:29.230Z,24.47
2019-03-24T07:11:30.620Z,24.39
2019-03-24T07:12:32.017Z,24.37
2019-03-24T07:13:33.498Z,24.38
2019-03-24T07:14:34.895Z,24.36
2019-03-24T07:15:36.289Z,24.29
2019-03-24T07:16:37.791Z,24.25
2019-03-24T07:17:39.276Z,24.18
2019-03-24T07:18:40.707Z,24.15
2019-03-24T07:19:42.214Z,24.16
2019-03-24T07:20:43.620Z,24.09
2019-03-24T07:21:45.027Z,24.00
2019-03-24T07:22:46.424Z,23.95
2019-03-24T07:23:47.992Z,24.00
2019-03-24T07:24:49.385Z,23.88
2019-03-24T07:25:50.766Z,23.81
2019-03-24T07:26:52.156Z,23.73
2019-03-24T07:27:53.552Z,23.64
2019-03-24T07:28:55.025Z,23.62
2019-03-24T07:29:56.519Z,23.57
2019-03-24T07:30:58.028Z,23.44
2019-03-24T07:31:59.432Z,23.40
2019-03-24T07:33:00.919Z,23.28
2019-03-24T07:34:02.313Z,23.21
2019-03-24T07:35:05.508Z,23.17
2019-03-24T07:36:07.000Z,23.18
2019-03-24T07:37:08.395Z,23.10
2019-03-24T07:38:09.801Z,22.99
2019-03-24T07:39:13.108Z,22.96
2019-03-24T07:40:14.600Z,22.86
2019-03-24T07:41:15.976Z,22.85
2019-03-24T07:42:17.377Z,22.81
2019-03-24T07:43:18.806Z,22.75
2019-03-24T07:44:20.194Z,22.71
2019-03-24T07:45:21.548Z,22.71
2019-03-24T07:46:22.924Z,22.69
2019-03-24T07:47:24.323Z,22.58
2019-03-24T07:48:25.712Z,22.55
2019-03-24T07:49:28.226Z,22.51
2019-03-24T07:50:29.636Z,22.50
2019-03-24T07:51:31.043Z,22.47
2019-03-24T07:52:32.456Z,22.39
2019-03-24T07:53:33.898Z,22.29
2019-03-24T07:54:36.378Z,22.26
2019-03-24T07:55:37.860Z,22.25
2019-03-24T07:56:39.245Z,22.20
2019-03-24T07:57:40.625Z,22.14
2019-03-24T07:58:42.146Z,22.20
2019-03-24T07:59:43.531Z,22.23
2019-03-24T08:00:44.931Z,22.21
2019-03-24T08:01:46.308Z,22.15
2019-03-24T08:02:51.363Z,22.22
2019-03-24T08:03:53.034Z,22.18
2019-03-24T08:04:54.492Z,22.19
2019-03-24T08:05:55.880Z,22.16
2019-03-24T08:06:57.269Z,22.12
2019-03-24T08:07:58.761Z,22.07
2019-03-24T08:09:00.175Z,21.98
2019-03-24T08:10:05.624Z,21.99
2019-03-24T08:11:08.027Z,21.93
2019-03-24T08:12:09.399Z,22.02
2019-03-24T08:13:10.793Z,22.02
2019-03-24T08:14:12.171Z,21.98
2019-03-24T08:15:13.560Z,21.92
2019-03-24T08:16:14.949Z,21.97
2019-03-24T08:17:16.342Z,21.96
2019-03-24T08:18:17.731Z,22.01
2019-03-24T08:19:19.132Z,22.00
2019-03-24T08:20:20.611Z,21.93
2019-03-24T08:21:22.009Z,21.94
2019-03-24T08:22:23.383Z,22.19
2019-03-24T08:23:24.781Z,22.42
2019-03-24T08:24:26.169Z,22.42
2019-03-24T08:25:27.624Z,22.45
2019-03-24T08:26:29.008Z,22.53
2019-03-24T08:27:30.393Z,22.48
2019-03-24T08:28:31.779Z,22.32
2019-03-24T08:29:33.181Z,22.23
2019-03-24T08:30:34.954Z,22.11
2019-03-24T08:31:36.355Z,22.18
2019-03-24T08:32:37.734Z,22.11
2019-03-24T08:33:39.142Z,21.98
2019-03-24T08:34:41.631Z,22.02
2019-03-24T08:35:43.028Z,22.07
2019-03-24T08:36:44.405Z,22.07
2019-03-24T08:37:45.893Z,22.04
2019-03-24T08:38:47.490Z,22.02
2019-03-24T08:39:48.923Z,22.00
2019-03-24T08:40:50.408Z,22.03
2019-03-24T08:41:51.789Z,22.02
2019-03-24T08:42:53.195Z,21.94
2019-03-24T08:43:54.610Z,21.95
2019-03-24T08:44:56.012Z,21.93
2019-03-24T08:45:57.389Z,22.09
2019-03-24T08:46:58.792Z,21.98
2019-03-24T08:48:00.165Z,22.09
2019-03-24T08:49:01.568Z,22.05
2019-03-24T08:50:05.155Z,21.91
2019-03-24T08:51:06.569Z,22.00
2019-03-24T08:52:07.981Z,21.92
2019-03-24T08:53:09.396Z,21.89
2019-03-24T08:54:10.812Z,21.83
2019-03-24T08:55:12.278Z,21.83
2019-03-24T08:56:13.737Z,21.89
2019-03-24T08:57:15.229Z,21.97
2019-03-24T08:58:16.626Z,21.95
2019-03-24T08:59:18.011Z,21.87
2019-03-24T09:00:30.133Z,21.93
2019-03-24T09:01:23.711Z,21.82
2019-03-24T09:02:25.112Z,21.93
2019-03-24T09:03:26.504Z,21.92
2019-03-24T09:04:27.909Z,22.00
2019-03-24T09:05:29.296Z,21.87
2019-03-24T09:06:30.693Z,21.83
2019-03-24T09:07:32.077Z,21.84
2019-03-24T09:08:33.468Z,21.85
2019-03-24T09:09:34.867Z,21.87
2019-03-24T09:10:36.269Z,21.82
2019-03-24T09:11:37.640Z,21.84
2019-03-24T09:12:39.036Z,21.88
2019-03-24T09:13:40.418Z,21.92
2019-03-24T09:14:41.813Z,21.99
2019-03-24T09:15:43.373Z,22.07
2019-03-24T09:16:44.998Z,22.01
2019-03-24T09:17:46.484Z,21.86
2019-03-24T09:18:52.853Z,21.79
2019-03-24T09:19:51.353Z,21.69
2019-03-24T09:20:52.752Z,21.70
2019-03-24T09:21:54.129Z,21.75
2019-03-24T09:22:55.527Z,21.78
2019-03-24T09:23:56.906Z,21.71
2019-03-24T09:24:58.312Z,21.73
2019-03-24T09:25:59.707Z,21.62
2019-03-24T09:27:01.249Z,21.68
2019-03-24T09:28:02.727Z,21.71
2019-03-24T09:29:04.117Z,21.70
2019-03-24T09:30:26.736Z,21.66
2019-03-24T09:31:28.160Z,21.65
2019-03-24T09:32:29.539Z,21.65
2019-03-24T09:33:30.945Z,21.69
2019-03-24T09:34:32.327Z,21.82
2019-03-24T09:35:33.730Z,21.81
2019-03-24T09:36:35.110Z,21.80
2019-03-24T09:37:36.601Z,21.78
2019-03-24T09:38:37.988Z,21.83
2019-03-24T09:39:39.491Z,21.84
2019-03-24T09:40:40.970Z,21.84
2019-03-24T09:41:43.377Z,21.82
2019-03-24T09:42:44.779Z,21.84
2019-03-24T09:43:46.320Z,21.88
2019-03-24T09:44:48.705Z,22.02
2019-03-24T09:45:50.222Z,21.96
2019-03-24T09:46:51.734Z,22.01
2019-03-24T09:47:53.102Z,21.95
2019-03-24T09:49:02.725Z,22.06
2019-03-24T09:49:57.884Z,22.10
2019-03-24T09:50:59.393Z,21.99
2019-03-24T09:52:00.883Z,22.01
2019-03-24T09:53:02.294Z,21.94
2019-03-24T09:54:03.697Z,22.01
2019-03-24T09:55:05.606Z,22.02
2019-03-24T09:56:07.985Z,21.97
2019-03-24T09:57:09.453Z,21.97
2019-03-24T09:58:10.826Z,21.91
2019-03-24T09:59:12.214Z,22.02
2019-03-24T10:00:13.595Z,22.01
2019-03-24T10:01:14.998Z,22.05
2019-03-24T10:02:16.394Z,21.89
2019-03-24T10:03:17.782Z,21.96
2019-03-24T10:04:19.179Z,21.97
2019-03-24T10:05:20.563Z,22.06
2019-03-24T10:06:22.013Z,22.04
2019-03-24T10:07:23.433Z,21.89
2019-03-24T10:08:25.808Z,21.88
2019-03-24T10:09:27.225Z,21.96
2019-03-24T10:10:28.600Z,21.95
2019-03-24T10:11:30.011Z,21.90
2019-03-24T10:12:32.395Z,21.83
2019-03-24T10:13:33.893Z,21.87
2019-03-24T10:14:35.306Z,21.83
2019-03-24T10:15:36.683Z,21.91
2019-03-24T10:16:38.074Z,21.86
2019-03-24T10:17:39.484Z,21.80
2019-03-24T10:18:40.856Z,21.93
2019-03-24T10:19:42.260Z,21.90
2019-03-24T10:20:43.633Z,21.94
2019-03-24T10:21:45.037Z,21.92
2019-03-24T10:22:46.523Z,21.94
2019-03-24T10:23:47.911Z,21.87
2019-03-24T10:24:49.407Z,21.89
2019-03-24T10:25:50.793Z,21.94
2019-03-24T10:26:52.172Z,21.96
2019-03-24T10:27:53.634Z,22.01
2019-03-24T10:28:55.008Z,22.05
2019-03-24T10:29:56.388Z,22.01
2019-03-24T10:30:57.768Z,22.01
2019-03-24T10:31:59.146Z,22.00
2019-03-24T10:33:00.639Z,21.97
2019-03-24T10:34:02.025Z,21.85
2019-03-24T10:35:05.307Z,21.96
2019-03-24T10:36:06.702Z,22.04
2019-03-24T10:37:08.084Z,21.98
2019-03-24T10:38:09.486Z,21.96
2019-03-24T10:39:10.965Z,21.98
2019-03-24T10:40:13.264Z,21.95
2019-03-24T10:41:14.642Z,21.98
2019-03-24T10:42:16.050Z,22.04
2019-03-24T10:43:17.439Z,21.95
2019-03-24T10:44:18.828Z,21.95
2019-03-24T10:45:20.212Z,22.07
2019-03-24T10:46:21.606Z,22.06
2019-03-24T10:47:23.087Z,22.05
2019-03-24T10:48:33.340Z,22.02
2019-03-24T10:49:28.377Z,21.99
2019-03-24T10:50:29.777Z,22.02
2019-03-24T10:51:31.253Z,22.01
2019-03-24T10:52:32.768Z,22.05
2019-03-24T10:53:34.250Z,22.04
2019-03-24T10:54:36.740Z,21.99
2019-03-24T10:55:38.231Z,22.00
2019-03-24T10:56:39.616Z,22.10
2019-03-24T10:57:41.091Z,22.09
2019-03-24T10:58:42.667Z,22.09
2019-03-24T10:59:44.039Z,22.08
2019-03-24T11:00:45.518Z,22.03
2019-03-24T11:01:47.017Z,22.10
2019-03-24T11:02:48.384Z,22.08
2019-03-24T11:03:49.768Z,22.05
2019-03-24T11:04:51.256Z,22.09
2019-03-24T11:05:53.730Z,22.07
2019-03-24T11:06:56.136Z,22.08
2019-03-24T11:07:57.551Z,21.94
2019-03-24T11:08:58.952Z,21.96
2019-03-24T11:10:00.355Z,21.92
2019-03-24T11:11:01.720Z,22.02
2019-03-24T11:12:03.301Z,22.06
2019-03-24T11:13:04.792Z,22.09
2019-03-24T11:14:06.285Z,22.16
2019-03-24T11:15:08.792Z,22.12
2019-03-24T11:16:10.351Z,21.98
2019-03-24T11:17:11.767Z,21.92
2019-03-24T11:18:13.180Z,22.05
2019-03-24T11:19:14.577Z,22.08
2019-03-24T11:20:15.944Z,22.07
2019-03-24T11:21:17.699Z,22.15
2019-03-24T11:22:19.176Z,22.15
2019-03-24T11:23:20.684Z,22.02
2019-03-24T11:24:22.072Z,22.09
2019-03-24T11:25:23.489Z,22.08
2019-03-24T11:26:24.893Z,22.08
2019-03-24T11:27:26.410Z,22.07
2019-03-24T11:28:27.809Z,22.01
2019-03-24T11:29:29.387Z,22.03
2019-03-24T11:30:30.861Z,22.11
2019-03-24T11:31:33.264Z,22.05
2019-03-24T11:32:34.644Z,22.00
2019-03-24T11:33:36.145Z,21.98
2019-03-24T11:34:37.532Z,22.02
2019-03-24T11:35:38.924Z,21.99
2019-03-24T11:36:40.313Z,21.96
2019-03-24T11:37:41.697Z,21.92
2019-03-24T11:38:43.092Z,21.96
2019-03-24T11:39:44.617Z,21.99
2019-03-24T11:40:45.988Z,21.97
2019-03-24T11:41:47.430Z,21.98
2019-03-24T11:42:48.793Z,21.96
2019-03-24T11:43:50.201Z,21.98
2019-03-24T11:44:51.604Z,21.97
2019-03-24T11:45:52.976Z,22.05
2019-03-24T11:46:54.371Z,21.94
2019-03-24T11:47:55.749Z,21.93
2019-03-24T11:48:57.253Z,21.92
2019-03-24T11:49:58.645Z,21.94
2019-03-24T11:51:00.060Z,22.07
2019-03-24T11:52:01.467Z,22.23
2019-03-24T11:53:03.155Z,22.11
2019-03-24T11:54:04.579Z,22.04
2019-03-24T11:55:07.886Z,22.07
2019-03-24T11:56:09.357Z,22.10
2019-03-24T11:57:10.756Z,22.06
2019-03-24T11:58:12.132Z,22.03
2019-03-24T11:59:13.521Z,21.98
2019-03-24T12:00:18.488Z,21.96
2019-03-24T12:01:19.868Z,22.00
2019-03-24T12:02:21.242Z,22.00
2019-03-24T12:03:22.625Z,22.05
2019-03-24T12:04:24.005Z,22.02
2019-03-24T12:05:25.504Z,21.99
2019-03-24T12:06:26.893Z,22.00
2019-03-24T12:07:28.376Z,22.02
2019-03-24T12:08:29.762Z,22.01
2019-03-24T12:09:31.139Z,22.09
2019-03-24T12:10:32.540Z,22.03
2019-03-24T12:11:33.908Z,22.08
2019-03-24T12:12:35.509Z,22.05
2019-03-24T12:13:36.875Z,22.09
2019-03-24T12:14:38.274Z,22.08
2019-03-24T12:15:39.688Z,22.09
2019-03-24T12:16:41.080Z,22.12
2019-03-24T12:17:42.471Z,22.19
2019-03-24T12:18:43.964Z,22.20
2019-03-24T12:19:45.359Z,22.18
2019-03-24T12:20:46.752Z,22.20
2019-03-24T12:21:48.139Z,22.27
2019-03-24T12:22:49.638Z,22.32
2019-03-24T12:23:51.124Z,22.26
2019-03-24T12:24:52.620Z,22.20
2019-03-24T12:25:54.036Z,22.23
2019-03-24T12:26:55.424Z,22.23
2019-03-24T12:27:56.912Z,22.19
2019-03-24T12:28:58.298Z,22.17
2019-03-24T12:29:59.675Z,22.17
2019-03-24T12:31:02.340Z,22.17
2019-03-24T12:32:03.827Z,22.21
2019-03-24T12:33:05.214Z,22.13
2019-03-24T12:34:07.600Z,22.12
2019-03-24T12:35:08.976Z,22.11
2019-03-24T12:36:10.357Z,22.16
2019-03-24T12:37:11.745Z,22.09
2019-03-24T12:38:13.127Z,22.07
2019-03-24T12:39:14.521Z,22.14
2019-03-24T12:40:15.903Z,22.16
2019-03-24T12:41:17.303Z,22.15
2019-03-24T12:42:18.681Z,22.12
2019-03-24T12:43:20.200Z,22.05
2019-03-24T12:44:21.616Z,21.99
2019-03-24T12:45:23.030Z,22.03
2019-03-24T12:46:24.432Z,22.01
2019-03-24T12:47:26.919Z,22.06
2019-03-24T12:48:28.394Z,22.06
2019-03-24T12:49:30.000Z,22.15
2019-03-24T12:50:31.999Z,22.19
2019-03-24T12:51:33.383Z,22.23
2019-03-24T12:52:34.758Z,22.19
2019-03-24T12:53:36.158Z,22.20
2019-03-24T12:54:37.552Z,22.22
2019-03-24T12:55:38.930Z,22.24
2019-03-24T12:56:40.318Z,22.17
2019-03-24T12:57:44.026Z,22.17
2019-03-24T12:58:45.048Z,22.20
2019-03-24T12:59:46.456Z,22.26
2019-03-24T13:00:47.854Z,22.24
2019-03-24T13:01:52.780Z,22.26
2019-03-24T13:02:53.625Z,22.33
2019-03-24T13:03:55.024Z,22.24
2019-03-24T13:04:56.392Z,22.32
2019-03-24T13:05:57.897Z,22.36
2019-03-24T13:06:59.274Z,22.39
2019-03-24T13:08:09.784Z,22.42
2019-03-24T13:09:11.275Z,22.35
2019-03-24T13:10:12.756Z,22.34
2019-03-24T13:11:15.148Z,22.38
2019-03-24T13:12:16.660Z,22.35
2019-03-24T13:13:18.020Z,22.33